Time;durP1;ratioP1;P1;durP2;ratioP2;P2;SDS_P1;SDS_P2;PMS_P1;PMS_P2;Temp;Humidity;BMP_temperature;BMP_pressure;BME280_temperature;BME280_humidity;BME280_pressure;Samples;Min_cycle;Max_cycle;Signal;HPM_P1;HPM_P2
2022/07/14 00:01:07;;;;;;;3.38;2.42;;;;;;;;;;5072172;28;20389;-58
2022/07/14 00:03:33;;;;;;;4.35;2.38;;;;;;;;;;5073353;28;20020;-58
2022/07/14 00:05:59;;;;;;;7.38;2.53;;;;;;;;;;5073048;28;20495;-58
2022/07/14 00:08:25;;;;;;;2.60;2.40;;;;;;;;;;5072611;28;20024;-57
2022/07/14 00:10:51;;;;;;;6.72;2.45;;;;;;;;;;5073607;28;20028;-58
2022/07/14 00:13:17;;;;;;;3.35;2.20;;;;;;;;;;5073268;28;20503;-57
2022/07/14 00:15:44;;;;;;;4.57;2.40;;;;;;;;;;5073103;28;20032;-58
2022/07/14 00:18:10;;;;;;;2.40;2.20;;;;;;;;;;5072972;28;20025;-58
2022/07/14 00:20:36;;;;;;;2.60;2.25;;;;;;;;;;5073168;28;20025;-58
2022/07/14 00:23:02;;;;;;;6.25;2.92;;;;;;;;;;5072634;28;20417;-58
2022/07/14 00:25:28;;;;;;;3.45;2.70;;;;;;;;;;5072940;28;20588;-58
2022/07/14 00:27:55;;;;;;;2.88;2.30;;;;;;;;;;5072827;28;20373;-58
2022/07/14 00:30:21;;;;;;;5.70;2.53;;;;;;;;;;5072878;28;20036;-58
2022/07/14 00:32:47;;;;;;;4.05;3.17;;;;;;;;;;5072949;28;20546;-58
2022/07/14 00:35:14;;;;;;;4.75;2.65;;;;;;;;;;5072721;28;20058;-58
2022/07/14 00:37:40;;;;;;;5.35;2.65;;;;;;;;;;5072108;28;20035;-58
2022/07/14 00:40:07;;;;;;;2.85;2.47;;;;;;;;;;5072680;28;20040;-58
2022/07/14 00:42:33;;;;;;;7.22;2.78;;;;;;;;;;5072656;28;20104;-57
2022/07/14 00:45:00;;;;;;;4.30;2.67;;;;;;;;;;5072947;28;20052;-58
2022/07/14 00:47:26;;;;;;;4.75;2.53;;;;;;;;;;5072485;28;20362;-58
2022/07/14 00:49:53;;;;;;;3.38;2.70;;;;;;;;;;5072201;28;20029;-58
2022/07/14 00:52:20;;;;;;;3.20;2.50;;;;;;;;;;5072508;28;20017;-57
2022/07/14 00:54:46;;;;;;;2.65;2.45;;;;;;;;;;5072437;28;20082;-58
2022/07/14 00:57:12;;;;;;;3.20;2.47;;;;;;;;;;5072471;28;20032;-55
2022/07/14 00:59:38;;;;;;;4.55;2.80;;;;;;;;;;5072368;28;20439;-58
2022/07/14 01:02:05;;;;;;;3.95;2.70;;;;;;;;;;5072121;28;20024;-58
2022/07/14 01:04:31;;;;;;;4.72;2.40;;;;;;;;;;5072337;28;20025;-58
2022/07/14 01:06:57;;;;;;;5.43;2.58;;;;;;;;;;5072302;28;20082;-57
2022/07/14 01:09:23;;;;;;;3.60;2.40;;;;;;;;;;5072302;28;20033;-58
2022/07/14 01:11:49;;;;;;;5.55;2.53;;;;;;;;;;5072287;28;20426;-58
2022/07/14 01:14:15;;;;;;;5.35;2.55;;;;;;;;;;5072538;28;20058;-58
2022/07/14 01:16:41;;;;;;;3.05;2.75;;;;;;;;;;5071902;28;20044;-58
2022/07/14 01:19:07;;;;;;;2.95;2.55;;;;;;;;;;5070618;28;20029;-58
2022/07/14 01:21:33;;;;;;;5.97;2.67;;;;;;;;;;5072014;28;20029;-57
2022/07/14 01:23:59;;;;;;;4.07;2.67;;;;;;;;;;5072149;28;20056;-58
2022/07/14 01:26:25;;;;;;;3.50;2.60;;;;;;;;;;5072037;28;20040;-57
2022/07/14 01:28:51;;;;;;;3.08;2.63;;;;;;;;;;5072250;28;20032;-58
2022/07/14 01:31:17;;;;;;;3.35;2.75;;;;;;;;;;5072254;28;20028;-58
2022/07/14 01:33:43;;;;;;;2.85;2.30;;;;;;;;;;5071647;28;20059;-57
2022/07/14 01:36:09;;;;;;;4.88;2.42;;;;;;;;;;5071649;28;20037;-58
2022/07/14 01:38:35;;;;;;;4.57;2.50;;;;;;;;;;5071881;28;20027;-57
2022/07/14 01:41:01;;;;;;;5.15;2.80;;;;;;;;;;5071824;28;20064;-58
2022/07/14 01:43:29;;;;;;;5.30;2.60;;;;;;;;;;5072139;28;20055;-57
2022/07/14 01:45:55;;;;;;;3.28;2.75;;;;;;;;;;5071736;28;20024;-58
2022/07/14 01:48:21;;;;;;;2.95;2.72;;;;;;;;;;5071576;28;20388;-58
2022/07/14 01:50:47;;;;;;;3.28;2.83;;;;;;;;;;5071931;28;20024;-58
2022/07/14 01:53:14;;;;;;;3.70;2.63;;;;;;;;;;5071600;28;20082;-58
2022/07/14 01:55:40;;;;;;;5.45;2.50;;;;;;;;;;5071919;28;20035;-58
2022/07/14 01:58:06;;;;;;;4.53;2.55;;;;;;;;;;5071707;28;20549;-58
2022/07/14 02:00:32;;;;;;;3.88;2.53;;;;;;;;;;5071723;28;20099;-58
2022/07/14 02:02:58;;;;;;;3.83;2.53;;;;;;;;;;5071751;28;20024;-58
2022/07/14 02:05:26;;;;;;;2.85;2.65;;;;;;;;;;5071787;28;20020;-58
2022/07/14 02:07:53;;;;;;;3.15;2.50;;;;;;;;;;5070350;28;20405;-56
2022/07/14 02:13:04;;;;;;;3.28;2.67;;;;;;;;;;5071413;28;20492;-58
2022/07/14 02:15:30;;;;;;;3.83;2.40;;;;;;;;;;5071355;28;20047;-57
2022/07/14 02:17:56;;;;;;;4.43;2.50;;;;;;;;;;5071701;28;20106;-58
2022/07/14 02:20:22;;;;;;;3.30;2.97;;;;;;;;;;5071528;28;20028;-58
2022/07/14 02:22:48;;;;;;;4.10;2.88;;;;;;;;;;5071602;28;20025;-54
2022/07/14 02:25:14;;;;;;;4.57;2.70;;;;;;;;;;5071768;28;20116;-58
2022/07/14 02:27:40;;;;;;;3.30;2.80;;;;;;;;;;5071234;28;20078;-58
2022/07/14 02:30:06;;;;;;;5.60;2.50;;;;;;;;;;5072686;28;20033;-58
2022/07/14 02:32:32;;;;;;;4.32;2.60;;;;;;;;;;5074670;28;20477;-58
2022/07/14 02:34:59;;;;;;;4.43;3.10;;;;;;;;;;5075300;28;20104;-58
2022/07/14 02:37:25;;;;;;;4.80;2.90;;;;;;;;;;5080034;28;20479;-58
2022/07/14 02:39:51;;;;;;;3.90;2.78;;;;;;;;;;5094996;28;20182;-57
2022/07/14 02:42:17;;;;;;;3.03;2.72;;;;;;;;;;5095304;28;20048;-57
2022/07/14 02:44:43;;;;;;;3.63;2.53;;;;;;;;;;5095140;28;20024;-57
2022/07/14 02:47:10;;;;;;;3.95;2.78;;;;;;;;;;5094627;28;20081;-57
2022/07/14 02:49:36;;;;;;;4.50;2.90;;;;;;;;;;5095018;28;20039;-58
2022/07/14 02:52:02;;;;;;;3.15;2.83;;;;;;;;;;5094917;28;20110;-58
2022/07/14 02:54:28;;;;;;;3.80;3.03;;;;;;;;;;5095068;28;20024;-57
2022/07/14 02:56:54;;;;;;;2.88;2.67;;;;;;;;;;5094672;28;20028;-57
2022/07/14 02:59:20;;;;;;;3.25;2.80;;;;;;;;;;5094914;28;20031;-58
2022/07/14 03:01:46;;;;;;;3.42;2.60;;;;;;;;;;5094366;28;20027;-58
2022/07/14 03:04:12;;;;;;;3.95;2.88;;;;;;;;;;5095141;28;20048;-57
2022/07/14 03:06:39;;;;;;;3.30;2.90;;;;;;;;;;5094587;28;20028;-56
2022/07/14 03:09:05;;;;;;;3.65;2.67;;;;;;;;;;5094454;28;20485;-57
2022/07/14 03:11:31;;;;;;;4.70;2.80;;;;;;;;;;5094438;28;20369;-58
2022/07/14 03:13:57;;;;;;;3.88;3.08;;;;;;;;;;5094719;28;20552;-58
2022/07/14 03:16:23;;;;;;;3.45;2.63;;;;;;;;;;5094100;28;20127;-57
2022/07/14 03:18:49;;;;;;;3.00;2.70;;;;;;;;;;5094586;28;20024;-57
2022/07/14 03:21:15;;;;;;;3.05;2.70;;;;;;;;;;5094435;28;20081;-57
2022/07/14 03:23:41;;;;;;;4.13;2.95;;;;;;;;;;5094356;28;20038;-57
2022/07/14 03:26:07;;;;;;;3.63;3.08;;;;;;;;;;5094091;28;20030;-58
2022/07/14 03:28:33;;;;;;;3.13;2.83;;;;;;;;;;5094352;28;20142;-57
2022/07/14 03:30:59;;;;;;;4.97;2.90;;;;;;;;;;5094113;28;20388;-58
2022/07/14 03:33:26;;;;;;;2.67;2.47;;;;;;;;;;5094154;28;20142;-58
2022/07/14 03:35:52;;;;;;;3.00;2.70;;;;;;;;;;5093857;28;20044;-58
2022/07/14 03:38:18;;;;;;;4.75;2.95;;;;;;;;;;5080863;28;20040;-56
2022/07/14 03:40:44;;;;;;;4.60;2.75;;;;;;;;;;5073465;28;20025;-58
2022/07/14 03:43:11;;;;;;;4.65;3.10;;;;;;;;;;5073458;28;20032;-57
2022/07/14 03:45:38;;;;;;;3.22;2.92;;;;;;;;;;5073313;28;20096;-57
2022/07/14 03:48:07;;;;;;;3.83;2.75;;;;;;;;;;5073930;28;20028;-58
2022/07/14 03:50:33;;;;;;;3.60;2.90;;;;;;;;;;5073565;28;20029;-57
2022/07/14 03:52:59;;;;;;;5.13;3.20;;;;;;;;;;5073877;28;20051;-55
2022/07/14 03:55:25;;;;;;;4.00;2.90;;;;;;;;;;5073138;28;20385;-58
2022/07/14 03:57:51;;;;;;;3.92;2.97;;;;;;;;;;5073344;28;20436;-56
2022/07/14 04:00:17;;;;;;;3.13;2.55;;;;;;;;;;5073006;28;20059;-57
2022/07/14 04:02:43;;;;;;;3.38;2.83;;;;;;;;;;5073206;28;20060;-57
2022/07/14 04:05:10;;;;;;;3.75;3.10;;;;;;;;;;5073247;28;20060;-57
2022/07/14 04:07:36;;;;;;;4.55;2.90;;;;;;;;;;5073375;28;20024;-56
2022/07/14 04:10:02;;;;;;;3.15;2.83;;;;;;;;;;5073147;28;20024;-58
2022/07/14 04:12:28;;;;;;;4.22;3.10;;;;;;;;;;5073192;28;20025;-57
2022/07/14 04:14:54;;;;;;;5.80;3.03;;;;;;;;;;5072655;28;20025;-57
2022/07/14 04:17:20;;;;;;;4.97;3.03;;;;;;;;;;5072872;28;20032;-58
2022/07/14 04:19:46;;;;;;;4.18;3.30;;;;;;;;;;5073331;28;20025;-57
2022/07/14 04:22:12;;;;;;;3.28;2.78;;;;;;;;;;5072911;28;20075;-55
2022/07/14 04:24:38;;;;;;;4.90;3.28;;;;;;;;;;5072911;28;20017;-57
2022/07/14 04:27:04;;;;;;;4.43;2.78;;;;;;;;;;5072659;28;20038;-57
2022/07/14 04:29:31;;;;;;;2.95;2.60;;;;;;;;;;5072319;28;20474;-58
2022/07/14 04:31:57;;;;;;;3.65;3.13;;;;;;;;;;5073104;28;20024;-57
2022/07/14 04:34:23;;;;;;;3.70;2.92;;;;;;;;;;5072635;28;20021;-57
2022/07/14 04:36:49;;;;;;;4.25;2.78;;;;;;;;;;5072073;28;20509;-57
2022/07/14 04:39:15;;;;;;;6.85;2.97;;;;;;;;;;5072535;28;20370;-57
2022/07/14 04:41:41;;;;;;;6.50;3.05;;;;;;;;;;5072628;28;20032;-57
2022/07/14 04:44:07;;;;;;;3.95;3.13;;;;;;;;;;5072104;28;20602;-57
2022/07/14 04:46:33;;;;;;;3.45;3.10;;;;;;;;;;5072367;28;20386;-57
2022/07/14 04:52:02;;;;;;;7.20;2.95;;;;;;;;;;5072627;28;20031;-57
2022/07/14 04:54:28;;;;;;;4.63;3.10;;;;;;;;;;5072283;28;20374;-57
2022/07/14 04:56:54;;;;;;;3.92;2.88;;;;;;;;;;5071710;28;20032;-57
2022/07/14 04:59:20;;;;;;;5.50;3.10;;;;;;;;;;5072307;28;20031;-57
2022/07/14 05:01:46;;;;;;;4.57;3.40;;;;;;;;;;5072535;28;20565;-57
2022/07/14 05:04:12;;;;;;;3.55;3.00;;;;;;;;;;5072215;28;20496;-57
2022/07/14 05:06:38;;;;;;;4.45;3.95;;;;;;;;;;5072260;28;20454;-55
2022/07/14 05:09:04;;;;;;;5.50;3.53;;;;;;;;;;5071918;28;20385;-57
2022/07/14 05:11:31;;;;;;;6.18;4.03;;;;;;;;;;5071773;28;20109;-57
2022/07/14 05:13:57;;;;;;;4.03;3.53;;;;;;;;;;5072206;28;20103;-57
2022/07/14 05:16:23;;;;;;;7.50;4.20;;;;;;;;;;5070749;28;20485;-57
2022/07/14 05:18:49;;;;;;;6.45;4.28;;;;;;;;;;5072373;28;20025;-57
2022/07/14 05:21:15;;;;;;;4.90;4.38;;;;;;;;;;5071923;28;20024;-57
2022/07/14 05:23:41;;;;;;;5.43;4.90;;;;;;;;;;5071801;28;20060;-56
2022/07/14 05:26:14;;;;;;;5.53;4.90;;;;;;;;;;5071541;28;20028;-56
2022/07/14 05:28:40;;;;;;;7.45;5.03;;;;;;;;;;5071936;28;20036;-56
2022/07/14 05:31:07;;;;;;;6.43;5.00;;;;;;;;;;5071981;28;20113;-57
2022/07/14 05:33:33;;;;;;;6.10;5.35;;;;;;;;;;5072208;28;20021;-57
2022/07/14 05:35:59;;;;;;;8.73;5.70;;;;;;;;;;5071571;28;20183;-57
2022/07/14 05:38:25;;;;;;;7.82;5.80;;;;;;;;;;5072133;28;20028;-57
2022/07/14 05:40:51;;;;;;;6.18;5.55;;;;;;;;;;5071434;28;20021;-56
2022/07/14 05:43:19;;;;;;;7.22;5.85;;;;;;;;;;5071738;28;20024;-57
2022/07/14 05:45:45;;;;;;;8.90;7.35;;;;;;;;;;5071692;28;20021;-57
2022/07/14 05:48:11;;;;;;;7.38;6.40;;;;;;;;;;5071605;28;20048;-57
2022/07/14 05:50:37;;;;;;;8.40;6.65;;;;;;;;;;5071603;28;20044;-58
2022/07/14 05:53:03;;;;;;;11.27;7.22;;;;;;;;;;5071648;28;20548;-58
2022/07/14 05:55:29;;;;;;;9.00;7.15;;;;;;;;;;5071221;28;20032;-56
2022/07/14 05:57:55;;;;;;;7.97;7.18;;;;;;;;;;5072027;28;20036;-57
2022/07/14 06:00:21;;;;;;;7.28;6.53;;;;;;;;;;5071765;28;20032;-57
2022/07/14 06:02:47;;;;;;;7.10;6.40;;;;;;;;;;5071629;28;20020;-58
2022/07/14 06:05:13;;;;;;;6.95;5.97;;;;;;;;;;5072951;28;20025;-58
2022/07/14 06:07:40;;;;;;;9.02;6.28;;;;;;;;;;5075890;28;20029;-56
2022/07/14 06:10:06;;;;;;;9.15;6.32;;;;;;;;;;5075049;28;20056;-58
2022/07/14 06:12:37;;;;;;;6.57;5.97;;;;;;;;;;5075664;28;20369;-57
2022/07/14 06:15:05;;;;;;;7.13;6.43;;;;;;;;;;5075433;28;20481;-57
2022/07/14 06:17:31;;;;;;;9.60;6.00;;;;;;;;;;5075304;28;20102;-58
2022/07/14 06:20:04;;;;;;;7.57;6.88;;;;;;;;;;5075287;28;20392;-57
2022/07/14 06:22:30;;;;;;;8.80;6.30;;;;;;;;;;5075337;28;20036;-56
2022/07/14 06:24:56;;;;;;;7.90;6.38;;;;;;;;;;5075059;28;20024;-58
2022/07/14 06:27:22;;;;;;;9.25;6.85;;;;;;;;;;5075549;28;20095;-57
2022/07/14 06:29:49;;;;;;;8.88;7.30;;;;;;;;;;5075309;28;20712;-58
2022/07/14 06:32:15;;;;;;;8.25;6.65;;;;;;;;;;5075139;28;20059;-58
2022/07/14 06:34:41;;;;;;;7.07;6.47;;;;;;;;;;5075269;28;20052;-58
2022/07/14 06:37:07;;;;;;;7.57;6.82;;;;;;;;;;5074637;28;20036;-56
2022/07/14 06:39:36;;;;;;;7.63;6.93;;;;;;;;;;5074691;28;20063;-58
2022/07/14 06:42:03;;;;;;;7.57;6.88;;;;;;;;;;5074876;28;20032;-58
2022/07/14 06:44:29;;;;;;;7.57;6.88;;;;;;;;;;5074977;28;20017;-58
2022/07/14 06:46:56;;;;;;;7.03;6.43;;;;;;;;;;5074999;28;20025;-58
2022/07/14 06:49:22;;;;;;;9.02;7.15;;;;;;;;;;5074840;28;20016;-58
2022/07/14 06:51:48;;;;;;;7.80;7.03;;;;;;;;;;5074876;28;20058;-57
2022/07/14 06:54:15;;;;;;;9.10;7.03;;;;;;;;;;5074759;28;20028;-58
2022/07/14 06:56:42;;;;;;;9.65;6.57;;;;;;;;;;5074588;28;20037;-58
2022/07/14 06:59:08;;;;;;;8.50;6.30;;;;;;;;;;5074622;28;20487;-59
2022/07/14 07:01:34;;;;;;;7.55;6.75;;;;;;;;;;5074556;28;20523;-59
2022/07/14 07:04:00;;;;;;;7.68;6.72;;;;;;;;;;5074557;28;20051;-58
2022/07/14 07:06:44;;;;;;;7.45;6.60;;;;;;;;;;5074413;28;20016;-58
2022/07/14 07:09:14;;;;;;;7.82;6.97;;;;;;;;;;5074736;28;20036;-59
2022/07/14 07:11:41;;;;;;;7.60;6.22;;;;;;;;;;5074378;28;20033;-58
2022/07/14 07:14:07;;;;;;;9.32;6.30;;;;;;;;;;5074267;28;20026;-59
2022/07/14 07:16:33;;;;;;;6.75;6.25;;;;;;;;;;5073959;28;20037;-59
2022/07/14 07:18:59;;;;;;;7.60;6.78;;;;;;;;;;5074032;28;20039;-59
2022/07/14 07:21:25;;;;;;;8.65;6.60;;;;;;;;;;5074114;28;20036;-58
2022/07/14 07:23:54;;;;;;;9.75;6.38;;;;;;;;;;5059051;28;20025;-57
2022/07/14 07:26:22;;;;;;;6.72;6.03;;;;;;;;;;5053721;28;20490;-59
2022/07/14 07:28:49;;;;;;;10.63;6.88;;;;;;;;;;5053911;28;20017;-59
2022/07/14 07:31:15;;;;;;;8.80;7.03;;;;;;;;;;5052484;28;20040;-59
2022/07/14 07:33:41;;;;;;;9.90;6.63;;;;;;;;;;5053814;28;20163;-58
2022/07/14 07:36:07;;;;;;;11.27;7.18;;;;;;;;;;5052687;28;20053;-60
2022/07/14 07:38:33;;;;;;;17.15;9.52;;;;;;;;;;5068731;28;20035;-57
2022/07/14 07:41:02;;;;;;;12.50;7.10;;;;;;;;;;5073424;28;20025;-58
2022/07/14 07:43:28;;;;;;;34.78;17.08;;;;;;;;;;5073672;28;20024;-58
2022/07/14 07:45:54;;;;;;;19.38;13.52;;;;;;;;;;5073395;28;20445;-58
2022/07/14 07:48:20;;;;;;;36.28;30.50;;;;;;;;;;5073524;28;20101;-58
2022/07/14 07:50:47;;;;;;;36.33;30.38;;;;;;;;;;5072541;28;20481;-57
2022/07/14 07:53:13;;;;;;;40.03;33.00;;;;;;;;;;5073653;28;20028;-58
2022/07/14 07:55:39;;;;;;;40.95;32.63;;;;;;;;;;5073129;28;20055;-58
2022/07/14 07:58:07;;;;;;;56.10;47.38;;;;;;;;;;5073196;28;20051;-59
2022/07/14 08:00:33;;;;;;;59.00;47.47;;;;;;;;;;5073154;28;20385;-59
2022/07/14 08:03:01;;;;;;;56.65;44.10;;;;;;;;;;5072227;28;20032;-59
2022/07/14 08:05:27;;;;;;;85.00;74.10;;;;;;;;;;5072125;28;20053;-60
2022/07/14 08:07:53;;;;;;;100.22;88.93;;;;;;;;;;5072678;28;20085;-59
2022/07/14 08:10:20;;;;;;;101.20;89.35;;;;;;;;;;5072603;28;20036;-60
2022/07/14 08:12:46;;;;;;;118.65;105.25;;;;;;;;;;5072865;28;20017;-59
2022/07/14 08:15:13;;;;;;;130.60;116.50;;;;;;;;;;5072501;28;20496;-60
2022/07/14 08:17:39;;;;;;;93.85;82.15;;;;;;;;;;5072233;28;20048;-61
2022/07/14 08:20:07;;;;;;;136.85;121.85;;;;;;;;;;5072179;28;20036;-60
2022/07/14 08:22:34;;;;;;;128.43;111.68;;;;;;;;;;5072421;28;20489;-59
2022/07/14 08:25:00;;;;;;;126.50;112.63;;;;;;;;;;5072097;28;20032;-60
2022/07/14 08:27:26;;;;;;;105.43;93.85;;;;;;;;;;5072585;28;20024;-60
2022/07/14 08:29:53;;;;;;;96.60;85.32;;;;;;;;;;5072249;28;20089;-60
2022/07/14 08:32:38;;;;;;;95.40;83.65;;;;;;;;;;5072241;28;20370;-60
2022/07/14 08:35:05;;;;;;;100.03;87.53;;;;;;;;;;5071935;28;20032;-59
2022/07/14 08:37:31;;;;;;;90.30;80.40;;;;;;;;;;5072288;28;20044;-59
2022/07/14 08:39:57;;;;;;;82.15;73.15;;;;;;;;;;5072748;28;20028;-60
2022/07/14 08:42:23;;;;;;;74.90;66.80;;;;;;;;;;5072593;28;20020;-58
2022/07/14 08:44:51;;;;;;;77.28;67.03;;;;;;;;;;5072492;28;20036;-61
2022/07/14 08:47:17;;;;;;;70.93;63.25;;;;;;;;;;5072530;28;20031;-60
2022/07/14 08:49:44;;;;;;;61.03;53.75;;;;;;;;;;5072149;28;20112;-60
2022/07/14 08:52:11;;;;;;;65.05;56.42;;;;;;;;;;5072474;28;20385;-67
2022/07/14 08:54:39;;;;;;;59.03;49.53;;;;;;;;;;5072238;28;20073;-68
2022/07/14 08:57:05;;;;;;;51.28;43.53;;;;;;;;;;5072390;28;20093;-66
2022/07/14 08:59:31;;;;;;;43.83;37.85;;;;;;;;;;5071847;28;20036;-68
2022/07/14 09:02:00;;;;;;;43.72;37.42;;;;;;;;;;5071065;28;20035;-67
2022/07/14 09:04:26;;;;;;;47.08;36.40;;;;;;;;;;5071683;28;20025;-66
2022/07/14 09:06:53;;;;;;;48.20;37.42;;;;;;;;;;5071573;28;20102;-67
2022/07/14 09:09:22;;;;;;;42.78;36.05;;;;;;;;;;5072035;28;20024;-67
2022/07/14 09:12:09;;;;;;;38.38;33.13;;;;;;;;;;5072078;28;20499;-67
2022/07/14 09:17:55;;;;;;;41.47;33.80;;;;;;;;;;5028738;28;20048;-68
2022/07/14 09:20:22;;;;;;;40.67;32.58;;;;;;;;;;5028723;28;20117;-67
2022/07/14 09:22:49;;;;;;;38.13;30.90;;;;;;;;;;5029908;28;20029;-67
2022/07/14 09:25:16;;;;;;;37.22;31.52;;;;;;;;;;5029848;28;20026;-67
2022/07/14 09:27:45;;;;;;;26.10;22.00;;;;;;;;;;5029900;28;20037;-67
2022/07/14 09:30:11;;;;;;;26.40;22.52;;;;;;;;;;5013721;28;20445;-66
2022/07/14 09:32:47;;;;;;;30.98;24.42;;;;;;;;;;5029608;28;20095;-67
2022/07/14 09:35:15;;;;;;;30.52;23.10;;;;;;;;;;5029514;28;20482;-67
2022/07/14 09:37:41;;;;;;;26.40;18.67;;;;;;;;;;5029357;28;20061;-68
2022/07/14 09:40:10;;;;;;;20.40;15.05;;;;;;;;;;5031232;28;20532;-66
2022/07/14 09:42:57;;;;;;;16.95;13.80;;;;;;;;;;5033922;28;20029;-68
2022/07/14 09:45:27;;;;;;;18.50;14.18;;;;;;;;;;5033780;28;20029;-66
2022/07/14 09:47:53;;;;;;;15.65;12.70;;;;;;;;;;5033192;28;20502;-67
2022/07/14 09:50:32;;;;;;;16.75;13.60;;;;;;;;;;5033700;28;20029;-67
2022/07/14 09:52:58;;;;;;;13.50;12.07;;;;;;;;;;5026088;28;20087;-67
2022/07/14 09:55:25;;;;;;;10.65;8.07;;;;;;;;;;5055259;28;20049;-67
2022/07/14 09:57:52;;;;;;;12.30;8.43;;;;;;;;;;5055273;28;20064;-68
2022/07/14 10:00:19;;;;;;;10.77;7.28;;;;;;;;;;5055509;28;20442;-68
2022/07/14 10:02:46;;;;;;;8.18;5.88;;;;;;;;;;5055015;28;20035;-68
2022/07/14 10:05:13;;;;;;;6.35;5.03;;;;;;;;;;5055440;28;20031;-68
2022/07/14 10:07:41;;;;;;;9.85;6.80;;;;;;;;;;5055197;28;20113;-67
2022/07/14 10:10:07;;;;;;;9.35;7.22;;;;;;;;;;5054446;28;20072;-67
2022/07/14 10:12:33;;;;;;;9.85;8.68;;;;;;;;;;5055042;28;20617;-67
2022/07/14 10:15:02;;;;;;;12.23;9.32;;;;;;;;;;5055675;28;20083;-68
2022/07/14 10:17:29;;;;;;;11.77;8.98;;;;;;;;;;5055253;28;20045;-67
2022/07/14 10:19:55;;;;;;;12.57;11.00;;;;;;;;;;5060382;28;20028;-66
2022/07/14 10:22:22;;;;;;;16.63;10.93;;;;;;;;;;5065375;28;20029;-67
2022/07/14 10:24:50;;;;;;;13.55;10.82;;;;;;;;;;5057493;28;20090;-68
2022/07/14 10:27:18;;;;;;;11.98;10.18;;;;;;;;;;5055041;28;20446;-67
2022/07/14 10:29:48;;;;;;;15.10;11.15;;;;;;;;;;5055050;28;20712;-66
2022/07/14 10:32:33;;;;;;;13.70;11.35;;;;;;;;;;5054827;28;20127;-66
2022/07/14 10:35:01;;;;;;;11.85;9.65;;;;;;;;;;5054293;28;20461;-65
2022/07/14 10:37:40;;;;;;;13.10;9.55;;;;;;;;;;5060610;28;20127;-64
2022/07/14 10:40:21;;;;;;;10.73;9.02;;;;;;;;;;5074642;28;20505;-66
2022/07/14 10:42:50;;;;;;;12.88;8.95;;;;;;;;;;5074806;28;20048;-71
2022/07/14 10:45:17;;;;;;;14.68;9.32;;;;;;;;;;5074474;28;20500;-67
2022/07/14 10:47:45;;;;;;;15.48;10.82;;;;;;;;;;5074344;28;20099;-66
2022/07/14 10:50:12;;;;;;;11.13;9.07;;;;;;;;;;5074175;28;20028;-66
2022/07/14 10:52:39;;;;;;;10.95;8.35;;;;;;;;;;5075118;28;20017;-64
2022/07/14 10:55:22;;;;;;;7.60;6.43;;;;;;;;;;5074553;28;20033;-66
2022/07/14 10:58:04;;;;;;;6.82;5.85;;;;;;;;;;5074621;28;20044;-65
2022/07/14 11:00:39;;;;;;;7.10;6.22;;;;;;;;;;5074391;28;20017;-67
2022/07/14 11:03:19;;;;;;;7.00;5.38;;;;;;;;;;5067655;28;20037;-67
2022/07/14 11:06:09;;;;;;;6.30;5.70;;;;;;;;;;5054364;28;20059;-66
2022/07/14 11:08:38;;;;;;;7.95;5.88;;;;;;;;;;5057720;28;20024;-67
2022/07/14 11:11:08;;;;;;;6.50;5.50;;;;;;;;;;5059556;28;20034;-67
2022/07/14 11:13:35;;;;;;;7.38;6.40;;;;;;;;;;5073923;28;20035;-69
2022/07/14 11:16:03;;;;;;;8.63;5.38;;;;;;;;;;5074440;28;20074;-71
2022/07/14 11:18:30;;;;;;;6.55;5.40;;;;;;;;;;5074600;28;20444;-68
2022/07/14 11:21:06;;;;;;;6.72;4.90;;;;;;;;;;5074301;28;20036;-68
2022/07/14 11:23:55;;;;;;;6.78;5.13;;;;;;;;;;5074130;28;20033;-71
2022/07/14 11:26:50;;;;;;;8.73;6.13;;;;;;;;;;5068821;28;20603;-72
2022/07/14 11:29:31;;;;;;;7.68;5.90;;;;;;;;;;5072588;28;20098;-67
2022/07/14 11:31:57;;;;;;;16.17;9.23;;;;;;;;;;5074134;28;20025;-68
2022/07/14 11:37:10;;;;;;;7.15;6.10;;;;;;;;;;5076916;28;20051;-68
2022/07/14 11:39:36;;;;;;;5.63;5.05;;;;;;;;;;5094029;28;20109;-67
2022/07/14 11:42:02;;;;;;;6.88;5.18;;;;;;;;;;5093146;28;20062;-68
2022/07/14 11:44:43;;;;;;;5.97;4.72;;;;;;;;;;5093845;28;20024;-68
2022/07/14 11:47:16;;;;;;;4.97;4.30;;;;;;;;;;5094369;28;20036;-67
2022/07/14 11:49:42;;;;;;;6.20;5.20;;;;;;;;;;5094077;28;20032;-67
2022/07/14 11:52:09;;;;;;;7.78;5.22;;;;;;;;;;5093912;28;20573;-66
2022/07/14 11:54:35;;;;;;;5.63;4.50;;;;;;;;;;5094049;28;20111;-69
2022/07/14 11:57:03;;;;;;;6.63;4.25;;;;;;;;;;5093524;28;20110;-67
2022/07/14 11:59:29;;;;;;;7.13;4.13;;;;;;;;;;5093703;28;20020;-68
2022/07/14 12:02:05;;;;;;;6.95;4.20;;;;;;;;;;5093250;28;20054;-68
2022/07/14 12:04:31;;;;;;;4.70;4.18;;;;;;;;;;5093619;28;20433;-68
2022/07/14 12:06:57;;;;;;;4.60;3.83;;;;;;;;;;5093636;28;20115;-67
2022/07/14 12:09:32;;;;;;;3.95;3.28;;;;;;;;;;5093445;28;20107;-67
2022/07/14 12:11:58;;;;;;;3.45;3.05;;;;;;;;;;5093206;28;20476;-67
2022/07/14 12:14:24;;;;;;;3.05;2.70;;;;;;;;;;5093478;28;20028;-66
2022/07/14 12:16:51;;;;;;;3.38;3.05;;;;;;;;;;5093195;28;20539;-67
2022/07/14 12:19:26;;;;;;;2.70;2.50;;;;;;;;;;5093361;28;20488;-67
2022/07/14 12:21:57;;;;;;;1.73;1.63;;;;;;;;;;5093358;28;20028;-67
2022/07/14 12:24:25;;;;;;;4.55;2.35;;;;;;;;;;5093541;28;20020;-67
2022/07/14 12:26:51;;;;;;;3.35;2.08;;;;;;;;;;5092801;28;20035;-67
2022/07/14 12:29:17;;;;;;;3.20;2.33;;;;;;;;;;5093056;28;20024;-67
2022/07/14 12:31:44;;;;;;;2.40;1.90;;;;;;;;;;5093449;28;20396;-67
2022/07/14 12:34:10;;;;;;;4.05;1.88;;;;;;;;;;5091967;28;20019;-67
2022/07/14 12:36:37;;;;;;;3.33;1.52;;;;;;;;;;5092801;28;20052;-69
2022/07/14 12:39:04;;;;;;;2.17;1.98;;;;;;;;;;5073541;28;20028;-68
2022/07/14 12:41:30;;;;;;;3.58;2.10;;;;;;;;;;5072362;28;20098;-67
2022/07/14 12:43:56;;;;;;;2.30;2.10;;;;;;;;;;5073088;28;20017;-67
2022/07/14 12:46:23;;;;;;;3.38;2.30;;;;;;;;;;5072394;28;20032;-67
2022/07/14 12:48:49;;;;;;;5.85;2.00;;;;;;;;;;5072471;28;20091;-67
2022/07/14 12:51:18;;;;;;;2.00;1.80;;;;;;;;;;5072398;28;20025;-67
2022/07/14 12:54:03;;;;;;;2.15;1.65;;;;;;;;;;5072361;28;20489;-66
2022/07/14 12:56:31;;;;;;;2.33;2.13;;;;;;;;;;5072003;28;20485;-67
2022/07/14 12:58:58;;;;;;;3.28;2.15;;;;;;;;;;5072810;28;20070;-68
2022/07/14 13:01:25;;;;;;;4.45;2.75;;;;;;;;;;5072405;28;20078;-68
2022/07/14 13:03:58;;;;;;;5.75;3.00;;;;;;;;;;5072427;28;20021;-68
2022/07/14 13:06:25;;;;;;;6.95;2.97;;;;;;;;;;5072210;28;20037;-75
2022/07/14 13:08:51;;;;;;;6.90;2.55;;;;;;;;;;5072161;28;20020;-68
2022/07/14 13:11:18;;;;;;;2.97;2.40;;;;;;;;;;5072176;28;20032;-66
2022/07/14 13:13:45;;;;;;;5.97;3.30;;;;;;;;;;5072018;28;20024;-69
2022/07/14 13:16:25;;;;;;;5.63;2.78;;;;;;;;;;5071279;28;20123;-68
2022/07/14 13:19:09;;;;;;;4.10;2.30;;;;;;;;;;5071766;28;20111;-67
2022/07/14 13:21:44;;;;;;;4.05;2.30;;;;;;;;;;5071810;28;20027;-66
2022/07/14 13:24:17;;;;;;;4.47;2.85;;;;;;;;;;5071164;28;20222;-68
2022/07/14 13:26:43;;;;;;;3.25;2.60;;;;;;;;;;5071848;28;20138;-67
2022/07/14 13:29:09;;;;;;;6.25;2.85;;;;;;;;;;5071942;28;20036;-68
2022/07/14 13:31:35;;;;;;;3.78;2.40;;;;;;;;;;5071878;28;20424;-68
2022/07/14 13:34:02;;;;;;;5.43;2.60;;;;;;;;;;5072276;28;20437;-67
2022/07/14 13:36:28;;;;;;;3.25;2.65;;;;;;;;;;5070192;28;20611;-70
2022/07/14 13:38:54;;;;;;;3.15;2.50;;;;;;;;;;5071425;28;20036;-70
2022/07/14 13:41:21;;;;;;;3.78;2.40;;;;;;;;;;5071931;28;20033;-67
2022/07/14 13:43:50;;;;;;;5.07;2.58;;;;;;;;;;5072300;28;20472;-66
2022/07/14 13:46:17;;;;;;;6.55;2.67;;;;;;;;;;5071861;28;20025;-66
2022/07/14 13:48:44;;;;;;;5.88;2.55;;;;;;;;;;5071909;28;20025;-67
2022/07/14 13:53:58;;;;;;;6.40;2.60;;;;;;;;;;5071223;28;20059;-69
2022/07/14 13:56:24;;;;;;;5.28;2.40;;;;;;;;;;5071649;28;20520;-67
2022/07/14 13:58:50;;;;;;;4.88;2.50;;;;;;;;;;5072109;28;20065;-66
2022/07/14 14:01:16;;;;;;;3.35;2.40;;;;;;;;;;5071506;28;20032;-67
2022/07/14 14:03:42;;;;;;;4.40;2.53;;;;;;;;;;5071893;28;20028;-68
2022/07/14 14:06:11;;;;;;;3.95;2.63;;;;;;;;;;5071643;28;20024;-67
2022/07/14 14:08:38;;;;;;;2.95;2.25;;;;;;;;;;5071600;28;20029;-66
2022/07/14 14:11:04;;;;;;;4.93;2.75;;;;;;;;;;5071520;28;20025;-67
2022/07/14 14:13:33;;;;;;;7.72;2.70;;;;;;;;;;5071521;28;20025;-67
2022/07/14 14:16:00;;;;;;;4.20;2.83;;;;;;;;;;5071663;28;20028;-67
2022/07/14 14:18:27;;;;;;;6.57;2.72;;;;;;;;;;5071429;28;20025;-66
2022/07/14 14:20:53;;;;;;;5.45;2.30;;;;;;;;;;5071958;28;20028;-67
2022/07/14 14:23:19;;;;;;;2.30;2.10;;;;;;;;;;5071184;28;20021;-65
2022/07/14 14:25:45;;;;;;;4.07;1.70;;;;;;;;;;5071987;28;20051;-67
2022/07/14 14:28:11;;;;;;;3.90;2.15;;;;;;;;;;5075158;28;20016;-67
2022/07/14 14:30:38;;;;;;;5.65;2.13;;;;;;;;;;5075463;28;20097;-67
2022/07/14 14:33:05;;;;;;;2.90;2.00;;;;;;;;;;5074860;28;20534;-67
2022/07/14 14:35:31;;;;;;;4.85;2.00;;;;;;;;;;5074766;28;20052;-68
2022/07/14 14:37:58;;;;;;;2.95;2.10;;;;;;;;;;5074538;28;20040;-65
2022/07/14 14:40:24;;;;;;;3.65;2.03;;;;;;;;;;5074903;28;20020;-67
2022/07/14 14:42:50;;;;;;;3.95;2.28;;;;;;;;;;5074396;28;20342;-67
2022/07/14 14:45:19;;;;;;;4.72;1.98;;;;;;;;;;5074559;28;20090;-67
2022/07/14 14:47:45;;;;;;;3.72;2.30;;;;;;;;;;5074884;28;20103;-66
2022/07/14 14:50:12;;;;;;;5.00;2.15;;;;;;;;;;5074730;28;20020;-66
2022/07/14 14:52:38;;;;;;;2.40;2.20;;;;;;;;;;5074684;28;20389;-66
2022/07/14 14:55:05;;;;;;;3.42;1.90;;;;;;;;;;5074858;28;20021;-66